Time;durP1;ratioP1;P1;durP2;ratioP2;P2;SDS_P1;SDS_P2;PMS_P1;PMS_P2;Temp;Humidity;BMP_temperature;BMP_pressure;BME280_temperature;BME280_humidity;BME280_pressure;Samples;Min_cycle;Max_cycle;Signal;HPM_P1;HPM_P2
2023/10/13 00:00:25;;;;;;;1.40;1.30;;;17.40;99.90;;;;;;5029362;28;20064;-85
2023/10/13 00:02:54;;;;;;;1.00;1.00;;;16.90;99.90;;;;;;5013260;28;20788;-86
2023/10/13 00:05:20;;;;;;;1.42;1.38;;;18.40;99.90;;;;;;5024506;28;20049;-84
2023/10/13 00:07:49;;;;;;;1.25;1.25;;;18.80;99.90;;;;;;5024255;28;20045;-86
2023/10/13 00:10:18;;;;;;;1.40;1.35;;;17.00;99.90;;;;;;5023121;28;20078;-89
2023/10/13 00:12:49;;;;;;;1.30;1.30;;;18.20;99.90;;;;;;5012709;28;20131;-86
2023/10/13 00:15:17;;;;;;;1.42;1.33;;;17.10;99.90;;;;;;5022894;28;20079;-82
2023/10/13 00:17:43;;;;;;;1.30;1.30;;;18.20;99.90;;;;;;5027289;28;20514;-84
2023/10/13 00:20:28;;;;;;;1.23;1.23;;;17.60;99.90;;;;;;5053591;28;20052;-84
2023/10/13 00:22:56;;;;;;;1.40;1.35;;;17.60;99.90;;;;;;5009153;28;20037;-86
2023/10/13 00:25:27;;;;;;;1.33;1.33;;;17.40;99.90;;;;;;5030442;28;20081;-84
2023/10/13 00:27:53;;;;;;;1.25;1.25;;;18.40;99.90;;;;;;5028151;28;20088;-84
2023/10/13 00:30:22;;;;;;;1.33;1.33;;;17.20;99.90;;;;;;5029044;28;20038;-86
2023/10/13 00:32:56;;;;;;;1.27;1.27;;;18.70;99.90;;;;;;5009813;28;20052;-84
2023/10/13 00:35:35;;;;;;;1.45;1.38;;;17.80;99.90;;;;;;5026833;28;20049;-84
2023/10/13 00:38:04;;;;;;;1.30;1.30;;;18.90;99.90;;;;;;5028493;28;20467;-84
2023/10/13 00:45:57;;;;;;;1.50;1.40;;;16.90;99.90;;;;;;5025844;28;20102;-85
2023/10/13 00:48:34;;;;;;;1.20;1.20;;;18.10;99.90;;;;;;5025873;28;20064;-87
2023/10/13 00:51:07;;;;;;;1.20;1.20;;;17.90;99.90;;;;;;5029759;28;20066;-82
2023/10/13 00:53:39;;;;;;;1.47;1.40;;;17.40;99.90;;;;;;5025517;28;20045;-84
2023/10/13 00:56:07;;;;;;;1.25;1.25;;;17.00;99.90;;;;;;5026833;28;20088;-85
2023/10/13 00:58:34;;;;;;;1.33;1.30;;;18.20;99.90;;;;;;5009426;28;20091;-84
2023/10/13 01:01:17;;;;;;;1.30;1.30;;;17.40;99.90;;;;;;5013214;28;20060;-83
2023/10/13 01:03:50;;;;;;;1.17;1.17;;;18.70;99.90;;;;;;5011986;28;20101;-85
2023/10/13 01:06:17;;;;;;;1.00;1.00;;;19.00;99.90;;;;;;5009449;28;20103;-84
2023/10/13 01:08:56;;;;;;;1.30;1.30;;;18.10;99.90;;;;;;5027570;28;20071;-86
2023/10/13 01:11:23;;;;;;;1.20;1.20;;;17.40;99.90;;;;;;5029091;28;20049;-86
2023/10/13 01:13:53;;;;;;;1.20;1.20;;;18.00;99.90;;;;;;5015449;28;20053;-85
2023/10/13 01:16:23;;;;;;;1.20;1.20;;;17.20;99.90;;;;;;5026017;28;20056;-83
2023/10/13 01:18:49;;;;;;;1.33;1.30;;;17.20;99.90;;;;;;5029594;28;20135;-84
2023/10/13 01:21:26;;;;;;;1.27;1.27;;;18.10;99.90;;;;;;5005553;28;20059;-85
2023/10/13 01:23:52;;;;;;;1.20;1.20;;;18.50;99.90;;;;;;5032560;28;20128;-86
2023/10/13 01:26:24;;;;;;;1.27;1.27;;;17.90;99.90;;;;;;5023515;28;20188;-85
2023/10/13 01:29:12;;;;;;;1.30;1.30;;;18.40;99.90;;;;;;5028328;28;22007;-86
2023/10/13 01:31:45;;;;;;;1.48;1.38;;;17.70;99.90;;;;;;5024311;28;20124;-84
2023/10/13 01:34:12;;;;;;;0.82;0.82;;;18.40;99.90;;;;;;5022119;28;20041;-85
2023/10/13 01:36:40;;;;;;;1.25;1.25;;;17.60;99.90;;;;;;5027389;28;20048;-86
2023/10/13 01:39:07;;;;;;;1.52;1.42;;;17.30;99.90;;;;;;5023703;28;20052;-86
2023/10/13 01:41:37;;;;;;;1.20;1.20;;;17.10;99.90;;;;;;5010249;28;20048;-83
2023/10/13 01:44:03;;;;;;;1.30;1.30;;;18.70;99.90;;;;;;5022892;28;20045;-84
2023/10/13 01:46:29;;;;;;;1.20;1.20;;;17.50;99.90;;;;;;5010244;28;20045;-89
2023/10/13 01:48:56;;;;;;;1.30;1.30;;;18.20;99.90;;;;;;5010970;28;20040;-88
2023/10/13 01:51:23;;;;;;;1.38;1.35;;;18.10;99.90;;;;;;5033388;28;20569;-85
2023/10/13 01:53:56;;;;;;;1.15;1.15;;;17.80;99.90;;;;;;5019160;28;20038;-86
2023/10/13 01:56:23;;;;;;;1.10;1.10;;;17.90;99.90;;;;;;5037070;28;20080;-90
2023/10/13 01:58:49;;;;;;;1.13;1.13;;;17.70;99.90;;;;;;5026189;28;20095;-87
2023/10/13 02:01:26;;;;;;;1.15;1.15;;;17.80;99.90;;;;;;5055769;28;20051;-87
2023/10/13 02:04:02;;;;;;;1.35;1.33;;;18.30;99.90;;;;;;5025526;28;20045;-86
2023/10/13 02:06:33;;;;;;;1.20;1.20;;;18.80;99.90;;;;;;5008219;28;20107;-86
2023/10/13 02:09:15;;;;;;;1.30;1.30;;;17.20;99.90;;;;;;5033834;28;20410;-86
2023/10/13 02:11:45;;;;;;;1.30;1.30;;;17.90;99.90;;;;;;5011730;28;20541;-87
2023/10/13 02:14:13;;;;;;;1.30;1.30;;;18.70;99.90;;;;;;5029487;28;20051;-90
2023/10/13 02:16:41;;;;;;;1.23;1.23;;;17.00;99.90;;;;;;5013791;28;20060;-88
2023/10/13 02:19:08;;;;;;;1.20;1.20;;;18.60;99.90;;;;;;5015964;28;20072;-86
2023/10/13 02:21:39;;;;;;;1.33;1.33;;;17.00;99.90;;;;;;5007972;28;20045;-85
2023/10/13 02:24:18;;;;;;;1.23;1.23;;;18.40;99.90;;;;;;5013282;28;20079;-86
2023/10/13 02:26:46;;;;;;;1.23;1.23;;;18.20;99.90;;;;;;5028283;28;20049;-86
2023/10/13 02:29:17;;;;;;;1.42;1.40;;;18.20;99.90;;;;;;5047323;28;20056;-87
2023/10/13 02:31:54;;;;;;;1.17;1.17;;;18.30;99.90;;;;;;5027699;28;20063;-84
2023/10/13 02:34:22;;;;;;;1.20;1.20;;;17.60;99.90;;;;;;5025895;28;20047;-85
2023/10/13 02:36:51;;;;;;;1.38;1.33;;;17.20;99.90;;;;;;5013590;28;20241;-85
2023/10/13 02:39:24;;;;;;;1.30;1.30;;;17.10;99.90;;;;;;5034093;28;20045;-85
2023/10/13 02:41:50;;;;;;;1.52;1.42;;;18.30;99.90;;;;;;5011282;28;20037;-84
2023/10/13 02:44:31;;;;;;;1.25;1.25;;;18.50;99.90;;;;;;5011023;28;20051;-84
2023/10/13 02:46:57;;;;;;;1.23;1.23;;;18.70;99.90;;;;;;5025529;28;20529;-84
2023/10/13 02:49:27;;;;;;;1.40;1.35;;;17.90;99.90;;;;;;5026301;28;20056;-84
2023/10/13 02:51:59;;;;;;;1.33;1.30;;;17.00;99.90;;;;;;5030074;28;20056;-86
2023/10/13 02:54:31;;;;;;;1.25;1.25;;;17.30;99.90;;;;;;5017298;28;20040;-86
2023/10/13 02:56:57;;;;;;;1.00;1.00;;;18.20;99.90;;;;;;5024504;28;20040;-85
2023/10/13 02:59:46;;;;;;;1.33;1.33;;;17.00;99.90;;;;;;5025348;28;20063;-84
2023/10/13 03:02:29;;;;;;;1.25;1.25;;;17.80;99.90;;;;;;5029273;28;20052;-84
2023/10/13 03:04:59;;;;;;;1.38;1.35;;;17.30;99.90;;;;;;5010894;28;20150;-83
2023/10/13 03:07:28;;;;;;;1.38;1.35;;;17.00;99.90;;;;;;5031337;28;20045;-84
2023/10/13 03:09:57;;;;;;;1.48;1.42;;;18.40;99.90;;;;;;5059126;28;20077;-85
2023/10/13 03:12:33;;;;;;;1.63;1.52;;;18.30;99.90;;;;;;5018657;28;20049;-88
2023/10/13 03:18:02;;;;;;;1.42;1.35;;;18.50;99.90;;;;;;5042534;28;20094;-87
2023/10/13 03:20:34;;;;;;;1.63;1.52;;;18.80;99.90;;;;;;5027494;28;20040;-83
2023/10/13 03:23:00;;;;;;;1.63;1.52;;;17.80;99.90;;;;;;5008207;28;20138;-86
2023/10/13 03:25:36;;;;;;;1.55;1.45;;;17.30;99.90;;;;;;5014062;28;20486;-87
2023/10/13 03:28:05;;;;;;;1.70;1.60;;;18.80;99.90;;;;;;5010790;28;20044;-86
2023/10/13 03:30:35;;;;;;;1.73;1.63;;;17.00;99.90;;;;;;5058155;28;20049;-86
2023/10/13 03:33:07;;;;;;;1.67;1.58;;;17.30;99.90;;;;;;5025838;28;20106;-84
2023/10/13 03:35:42;;;;;;;1.83;1.73;;;18.20;99.90;;;;;;5010121;28;20052;-84
2023/10/13 03:38:18;;;;;;;1.65;1.55;;;17.90;99.90;;;;;;5027552;28;20057;-85
2023/10/13 03:40:48;;;;;;;1.67;1.58;;;17.80;99.90;;;;;;5007044;28;20474;-84
2023/10/13 03:43:21;;;;;;;1.67;1.58;;;17.00;99.90;;;;;;5027902;28;20067;-83
2023/10/13 03:46:00;;;;;;;1.73;1.63;;;18.70;99.90;;;;;;5029159;28;20479;-85
2023/10/13 03:51:07;;;;;;;1.88;1.77;;;18.60;99.90;;;;;;5029818;28;20596;-84
2023/10/13 03:53:56;;;;;;;1.92;1.83;;;17.00;99.90;;;;;;5009750;28;20058;-85
2023/10/13 03:56:26;;;;;;;1.77;1.67;;;17.60;99.90;;;;;;5025712;28;20639;-85
2023/10/13 03:59:06;;;;;;;1.80;1.70;;;17.50;99.90;;;;;;5036638;28;20053;-83
2023/10/13 04:04:42;;;;;;;1.98;1.88;;;18.70;99.90;;;;;;5025729;28;20107;-84
2023/10/13 04:17:40;;;;;;;1.83;1.73;;;17.70;99.90;;;;;;5025501;28;20057;-86
2023/10/13 04:25:35;;;;;;;2.03;1.92;;;17.70;99.90;;;;;;5031050;28;20473;-86
2023/10/13 04:31:44;;;;;;;2.00;1.90;;;17.50;99.90;;;;;;5053913;28;20068;-85
2023/10/13 04:33:38;;;;;;;1.95;1.85;;;17.40;99.90;;;;;;5026220;28;20060;-85
2023/10/13 04:36:16;;;;;;;2.10;2.00;;;16.90;99.90;;;;;;5028288;28;20120;-87
2023/10/13 04:41:43;;;;;;;2.03;1.92;;;18.50;99.90;;;;;;5030775;28;20053;-86
2023/10/13 04:55:59;;;;;;;2.20;2.10;;;17.70;99.90;;;;;;5028788;28;20057;-85
2023/10/13 06:28:41;;;;;;;;;;;18.40;99.90;;;;;;5034369;28;20140;-88
2023/10/13 06:31:12;;;;;;;3.97;3.78;;;16.80;99.90;;;;;;5020321;28;19920;-88
2023/10/13 06:33:44;;;;;;;3.20;3.00;;;16.70;99.90;;;;;;5032795;28;20049;-88
2023/10/13 06:36:12;;;;;;;2.85;2.65;;;17.10;99.90;;;;;;5011900;28;20068;-88
2023/10/13 06:38:38;;;;;;;3.08;2.88;;;17.70;99.90;;;;;;5046298;28;20056;-87
2023/10/13 06:41:07;;;;;;;2.70;2.60;;;17.60;99.90;;;;;;5033019;28;20106;-89
2023/10/13 06:43:39;;;;;;;2.97;2.78;;;17.80;99.90;;;;;;5034918;28;20045;-85
2023/10/13 06:46:14;;;;;;;2.83;2.72;;;17.00;99.90;;;;;;5047304;28;20044;-88
2023/10/13 06:48:41;;;;;;;3.30;3.10;;;18.00;99.90;;;;;;5034675;28;20053;-86
2023/10/13 06:51:22;;;;;;;2.92;2.83;;;17.10;99.90;;;;;;5047472;28;20065;-88
2023/10/13 06:53:49;;;;;;;3.05;2.85;;;18.00;99.90;;;;;;5048689;28;20584;-92
2023/10/13 06:56:28;;;;;;;2.92;2.83;;;17.00;99.90;;;;;;5014028;28;20055;-86
2023/10/13 06:59:02;;;;;;;3.13;2.92;;;18.90;99.90;;;;;;5018918;28;20044;-85
2023/10/13 07:01:38;;;;;;;2.72;2.63;;;18.20;99.90;;;;;;5028659;28;20053;-87
2023/10/13 07:04:05;;;;;;;2.55;2.45;;;17.20;99.90;;;;;;5039552;28;20056;-90
2023/10/13 07:06:33;;;;;;;2.63;2.53;;;18.40;99.90;;;;;;5017425;28;20124;-86
2023/10/13 07:09:04;;;;;;;2.47;2.38;;;18.40;99.90;;;;;;5021027;28;20139;-86
2023/10/13 07:11:42;;;;;;;2.63;2.53;;;17.90;99.90;;;;;;5034397;28;20051;-88
2023/10/13 07:14:10;;;;;;;2.63;2.53;;;18.90;99.90;;;;;;5012503;28;20048;-92
2023/10/13 07:17:00;;;;;;;2.50;2.40;;;17.50;99.90;;;;;;5027684;28;20045;-89
2023/10/13 07:19:30;;;;;;;2.50;2.40;;;17.40;99.90;;;;;;5017013;28;20071;-87
2023/10/13 07:21:59;;;;;;;2.63;2.53;;;17.40;99.90;;;;;;5032301;28;20463;-89
2023/10/13 07:24:31;;;;;;;2.60;2.50;;;19.20;99.90;;;;;;5033342;28;20056;-86
2023/10/13 07:27:05;;;;;;;2.42;2.33;;;19.30;99.90;;;;;;5036073;28;20098;-89
2023/10/13 07:29:35;;;;;;;2.38;2.28;;;18.80;99.90;;;;;;5054867;28;20061;-93
2023/10/13 07:32:12;;;;;;;2.22;2.13;;;19.20;99.90;;;;;;5017774;28;20110;-89
2023/10/13 07:34:39;;;;;;;2.35;2.25;;;19.10;99.90;;;;;;5017788;28;20113;-88
2023/10/13 07:37:16;;;;;;;2.40;2.30;;;17.60;99.90;;;;;;5055146;28;20063;-90
2023/10/13 07:39:42;;;;;;;2.35;2.25;;;17.60;99.90;;;;;;5019811;28;20632;-90
2023/10/13 07:42:19;;;;;;;2.25;2.15;;;18.50;99.90;;;;;;5033639;28;20127;-91
2023/10/13 07:44:48;;;;;;;2.10;2.00;;;18.00;99.90;;;;;;5038608;28;20037;-90
2023/10/13 07:47:20;;;;;;;2.10;2.00;;;19.20;99.90;;;;;;5035652;28;20044;-88
2023/10/13 07:49:50;;;;;;;2.22;2.13;;;17.80;99.90;;;;;;5072380;28;20049;-91
2023/10/13 07:57:33;;;;;;;2.15;2.05;;;18.90;99.90;;;;;;5037239;28;20040;-91
2023/10/13 08:00:25;;;;;;;2.15;2.05;;;18.30;99.90;;;;;;5023195;28;20051;-88
2023/10/13 08:03:09;;;;;;;2.25;2.15;;;18.30;99.90;;;;;;5028841;28;20048;-90
2023/10/13 08:05:58;;;;;;;1.60;1.50;;;18.40;99.90;;;;;;5037700;28;20124;-89
2023/10/13 08:08:39;;;;;;;2.22;2.13;;;18.50;99.90;;;;;;5006733;28;20044;-93
2023/10/13 08:13:59;;;;;;;1.80;1.70;;;18.50;99.90;;;;;;5037417;28;20394;-88
2023/10/13 08:16:45;;;;;;;1.90;1.80;;;18.10;99.90;;;;;;5026487;28;20040;-86
2023/10/13 08:19:15;;;;;;;2.05;1.95;;;18.70;99.90;;;;;;5023133;28;20056;-92
2023/10/13 08:22:14;;;;;;;2.05;1.95;;;18.30;99.90;;;;;;5047687;28;20115;-87
2023/10/13 08:37:47;;;;;;;1.80;1.70;;;19.60;99.90;;;;;;5041753;28;20719;-93
2023/10/13 08:43:20;;;;;;;2.30;2.20;;;19.00;99.90;;;;;;5045005;28;20144;-95
2023/10/13 08:48:31;;;;;;;2.05;1.95;;;19.50;99.90;;;;;;5041329;28;20067;-96
2023/10/13 08:51:03;;;;;;;1.73;1.63;;;18.60;99.90;;;;;;5024910;28;20192;-89
2023/10/13 08:56:36;;;;;;;1.70;1.60;;;19.20;99.90;;;;;;5038867;28;20056;-86
2023/10/13 08:59:09;;;;;;;1.80;1.70;;;19.10;99.90;;;;;;5049608;28;20063;-88
2023/10/13 09:01:48;;;;;;;1.73;1.63;;;19.30;99.90;;;;;;5023758;28;20090;-90
2023/10/13 09:06:57;;;;;;;1.70;1.60;;;19.30;99.90;;;;;;5036600;28;20069;-87
2023/10/13 09:09:26;;;;;;;1.90;1.80;;;19.60;99.90;;;;;;5037328;28;20120;-89
2023/10/13 09:12:10;;;;;;;2.00;1.90;;;19.80;99.90;;;;;;5026066;28;20414;-88
2023/10/13 09:14:44;;;;;;;1.50;1.40;;;20.10;99.90;;;;;;5013858;28;20160;-87
2023/10/13 09:17:11;;;;;;;;;;;19.70;99.90;;;;;;5020049;28;20044;-91
2023/10/13 09:19:47;;;;;;;2.08;1.98;;;20.00;99.90;;;;;;5068446;28;19974;-90
2023/10/13 09:22:35;;;;;;;1.90;1.80;;;19.80;99.90;;;;;;5043955;28;20098;-87
2023/10/13 09:25:02;;;;;;;1.70;1.60;;;20.00;99.90;;;;;;5036961;28;20054;-82
2023/10/13 09:27:32;;;;;;;1.67;1.58;;;20.20;99.90;;;;;;5049950;28;20040;-87
2023/10/13 09:30:18;;;;;;;1.55;1.45;;;19.90;99.90;;;;;;5031450;28;20045;-90
2023/10/13 09:32:48;;;;;;;1.60;1.50;;;19.80;99.90;;;;;;5022184;28;20292;-86
2023/10/13 09:35:22;;;;;;;1.70;1.60;;;20.00;99.90;;;;;;5030054;28;20105;-88
2023/10/13 09:37:49;;;;;;;1.35;1.35;;;20.10;99.90;;;;;;5030988;28;20045;-85
2023/10/13 09:42:55;;;;;;;1.35;1.33;;;19.70;99.90;;;;;;5035764;28;20083;-87
2023/10/13 09:45:28;;;;;;;1.38;1.35;;;20.00;99.90;;;;;;5036324;28;20050;-89
2023/10/13 09:48:00;;;;;;;1.38;1.35;;;20.00;99.90;;;;;;5034774;28;20053;-88
2023/10/13 09:50:33;;;;;;;1.38;1.35;;;19.90;99.90;;;;;;5036307;28;20052;-94
2023/10/13 09:53:10;;;;;;;1.70;1.60;;;20.10;99.90;;;;;;5029766;28;20143;-95
2023/10/13 09:55:54;;;;;;;1.52;1.45;;;19.90;99.90;;;;;;5054691;28;20040;-96
2023/10/13 09:58:29;;;;;;;1.35;1.35;;;20.10;99.90;;;;;;5041091;28;20128;-95
2023/10/13 10:01:07;;;;;;;1.27;1.27;;;19.90;99.90;;;;;;5020569;28;20049;-84
2023/10/13 10:06:25;;;;;;;1.67;1.58;;;19.60;99.90;;;;;;5030118;28;20199;-89
2023/10/13 10:09:12;;;;;;;1.52;1.42;;;19.70;99.90;;;;;;5065218;28;20041;-89
2023/10/13 10:11:56;;;;;;;1.27;1.27;;;19.70;99.90;;;;;;5025969;28;20094;-87
2023/10/13 10:14:48;;;;;;;;;;;20.00;99.90;;;;;;5021152;28;20614;-92
2023/10/13 10:17:14;;;;;;;1.67;1.58;;;19.90;99.90;;;;;;5024086;28;20373;-84
2023/10/13 10:19:54;;;;;;;1.58;1.48;;;19.70;99.90;;;;;;5030539;28;20458;-86
2023/10/13 10:22:33;;;;;;;1.48;1.40;;;19.90;99.90;;;;;;5015303;28;20048;-84
2023/10/13 10:25:25;;;;;;;1.40;1.35;;;19.70;99.90;;;;;;5027988;28;20784;-84
2023/10/13 10:27:58;;;;;;;1.30;1.30;;;19.80;99.90;;;;;;5035488;28;20048;-84
2023/10/13 10:30:29;;;;;;;1.27;1.27;;;19.80;99.90;;;;;;5016814;28;20050;-87
2023/10/13 10:33:12;;;;;;;1.48;1.38;;;19.80;99.90;;;;;;5045996;28;20041;-91
2023/10/13 10:35:42;;;;;;;1.30;1.30;;;20.10;99.90;;;;;;5025716;28;20049;-87
2023/10/13 10:38:24;;;;;;;1.35;1.35;;;20.20;99.90;;;;;;5029277;28;20090;-86
2023/10/13 10:41:24;;;;;;;1.38;1.35;;;20.00;99.90;;;;;;5032269;28;20053;-89
2023/10/13 10:43:50;;;;;;;1.27;1.27;;;20.00;99.90;;;;;;5027222;28;20076;-89
2023/10/13 10:46:18;;;;;;;1.35;1.33;;;20.10;99.90;;;;;;5034893;28;20148;-88
2023/10/13 10:48:45;;;;;;;1.35;1.35;;;20.10;99.90;;;;;;5026829;28;20056;-89
2023/10/13 10:51:21;;;;;;;1.23;1.23;;;20.30;99.90;;;;;;5030686;28;20123;-86
2023/10/13 10:53:49;;;;;;;1.27;1.27;;;20.30;99.90;;;;;;5032359;28;20048;-92
2023/10/13 10:56:25;;;;;;;1.17;1.17;;;20.30;99.90;;;;;;5033575;28;20410;-84
2023/10/13 10:58:58;;;;;;;;;;;20.40;99.90;;;;;;5032818;28;20056;-87
2023/10/13 11:01:25;;;;;;;1.30;1.27;;;20.40;99.90;;;;;;5031810;28;19925;-90
2023/10/13 11:03:59;;;;;;;1.17;1.17;;;20.50;99.90;;;;;;5065045;28;20490;-88
2023/10/13 11:06:26;;;;;;;1.25;1.25;;;20.50;99.90;;;;;;5030891;28;20040;-88
2023/10/13 11:12:13;;;;;;;1.13;1.13;;;20.70;99.90;;;;;;5011637;28;20049;-84
2023/10/13 11:14:46;;;;;;;1.00;1.00;;;20.70;99.90;;;;;;5034205;28;20052;-85
2023/10/13 11:17:26;;;;;;;1.13;1.13;;;20.70;99.90;;;;;;5030615;28;20048;-84
2023/10/13 11:19:52;;;;;;;1.17;1.17;;;20.80;99.90;;;;;;5026685;28;20048;-85
2023/10/13 11:25:09;;;;;;;1.05;1.05;;;20.70;99.90;;;;;;5058464;28;20048;-88
2023/10/13 11:27:55;;;;;;;1.13;1.13;;;20.80;99.90;;;;;;5032705;28;20505;-83
2023/10/13 11:30:25;;;;;;;1.08;1.08;;;20.80;99.90;;;;;;5036468;28;20718;-91
2023/10/13 11:33:07;;;;;;;1.00;1.00;;;20.80;99.90;;;;;;5050170;28;20041;-87
2023/10/13 11:38:26;;;;;;;1.17;1.17;;;20.70;99.90;;;;;;5035737;28;20048;-88
2023/10/13 11:46:15;;;;;;;1.05;1.05;;;21.20;99.90;;;;;;5031248;28;20589;-82
2023/10/13 11:48:46;;;;;;;1.17;1.17;;;21.30;99.90;;;;;;5028350;28;20506;-89
2023/10/13 11:51:38;;;;;;;1.15;1.15;;;21.40;99.90;;;;;;5018099;28;20052;-92
2023/10/13 11:53:59;;;;;;;1.10;1.10;;;21.40;99.90;;;;;;5033557;28;20387;-85
2023/10/13 11:56:25;;;;;;;1.17;1.17;;;21.50;99.90;;;;;;5039220;28;20044;-85
2023/10/13 11:58:51;;;;;;;1.02;1.02;;;21.70;99.90;;;;;;5035349;28;20037;-86
2023/10/13 12:11:45;;;;;;;1.17;1.17;;;21.20;99.90;;;;;;5032420;28;20041;-84
2023/10/13 12:14:21;;;;;;;1.15;1.15;;;21.20;99.90;;;;;;5029373;28;20497;-82
2023/10/13 12:16:51;;;;;;;1.30;1.30;;;21.10;99.90;;;;;;5031580;28;20045;-86
2023/10/13 12:19:23;;;;;;;1.13;1.13;;;21.10;99.90;;;;;;5017884;28;20046;-86
2023/10/13 12:21:54;;;;;;;1.27;1.27;;;21.20;99.90;;;;;;5035112;28;20090;-87
2023/10/13 12:24:30;;;;;;;1.25;1.25;;;21.20;99.90;;;;;;5034138;28;20041;-91
2023/10/13 12:26:57;;;;;;;1.08;1.08;;;21.20;99.90;;;;;;5045367;28;20060;-86
2023/10/13 12:29:29;;;;;;;1.13;1.13;;;21.20;99.90;;;;;;5019479;28;20053;-86
2023/10/13 12:32:09;;;;;;;1.13;1.13;;;21.20;99.90;;;;;;5031783;28;20053;-88
2023/10/13 12:54:14;;;;;;;1.25;1.25;;;21.20;99.90;;;;;;5032619;28;20080;-82
2023/10/13 12:56:43;;;;;;;1.17;1.17;;;21.20;99.90;;;;;;5054509;28;20781;-86
2023/10/13 12:59:13;;;;;;;1.38;1.35;;;21.30;99.90;;;;;;5059573;28;20440;-88
2023/10/13 13:01:43;;;;;;;0.77;0.77;;;21.30;99.90;;;;;;5035353;28;20700;-87
2023/10/13 13:04:18;;;;;;;1.15;1.15;;;21.30;99.90;;;;;;5032071;28;20048;-86
2023/10/13 13:06:44;;;;;;;1.17;1.17;;;21.20;99.90;;;;;;5016165;28;20061;-87
2023/10/13 13:09:09;;;;;;;1.23;1.23;;;21.10;99.90;;;;;;5031456;28;20130;-83
2023/10/13 13:11:42;;;;;;;1.15;1.15;;;21.20;99.90;;;;;;5052334;28;20049;-80
2023/10/13 13:14:09;;;;;;;1.25;1.25;;;21.20;99.90;;;;;;5037284;28;20037;-84
2023/10/13 13:16:38;;;;;;;1.17;1.17;;;21.20;99.90;;;;;;5045638;28;20053;-88
2023/10/13 13:19:10;;;;;;;0.90;0.90;;;21.20;99.90;;;;;;5034469;28;20076;-92
2023/10/13 13:21:38;;;;;;;1.17;1.17;;;21.20;99.90;;;;;;5017530;28;20044;-90
2023/10/13 13:24:23;;;;;;;1.17;1.17;;;21.30;99.90;;;;;;5045315;28;20041;-86
2023/10/13 13:26:54;;;;;;;1.33;1.33;;;21.30;99.90;;;;;;5032350;28;20110;-86
2023/10/13 13:29:20;;;;;;;1.50;1.40;;;21.30;99.90;;;;;;5012646;28;20395;-93
2023/10/13 13:31:46;;;;;;;1.25;1.25;;;21.30;99.90;;;;;;5035356;28;20051;-87
2023/10/13 13:34:15;;;;;;;1.00;1.00;;;21.30;99.90;;;;;;5040881;28;20052;-89
2023/10/13 13:36:44;;;;;;;1.27;1.27;;;21.20;99.90;;;;;;5018880;28;20136;-84
2023/10/13 13:39:17;;;;;;;1.23;1.23;;;21.10;99.90;;;;;;5027485;28;20146;-90
2023/10/13 13:41:56;;;;;;;1.25;1.25;;;21.20;99.90;;;;;;5015714;28;20153;-88
2023/10/13 13:44:35;;;;;;;1.58;1.48;;;21.20;99.90;;;;;;5031729;28;20045;-88
2023/10/13 13:47:11;;;;;;;1.33;1.33;;;21.20;99.90;;;;;;5038825;28;20053;-88
2023/10/13 13:49:46;;;;;;;1.23;1.23;;;21.20;99.90;;;;;;5012753;28;20048;-87
2023/10/13 13:52:17;;;;;;;1.25;1.25;;;21.20;99.90;;;;;;5028357;28;20053;-83
2023/10/13 13:54:43;;;;;;;1.25;1.25;;;21.10;99.90;;;;;;5030651;28;20106;-84
2023/10/13 13:57:10;;;;;;;1.30;1.30;;;21.00;99.90;;;;;;5068716;28;20049;-88
2023/10/13 13:59:38;;;;;;;1.10;1.10;;;20.80;99.90;;;;;;5047504;28;20037;-89
2023/10/13 14:02:19;;;;;;;1.38;1.38;;;20.80;99.90;;;;;;5038164;28;20053;-81
2023/10/13 14:04:46;;;;;;;1.30;1.30;;;20.70;99.90;;;;;;5038319;28;20054;-87
2023/10/13 14:07:14;;;;;;;1.25;1.25;;;20.70;99.90;;;;;;5041672;28;20044;-87
2023/10/13 14:09:44;;;;;;;1.63;1.58;;;20.60;99.90;;;;;;5046505;28;20052;-92
2023/10/13 14:14:56;;;;;;;1.23;1.23;;;20.60;99.90;;;;;;5036251;28;20049;-84
2023/10/13 14:17:28;;;;;;;1.17;1.17;;;20.40;99.90;;;;;;5064695;28;20045;-88
2023/10/13 14:20:01;;;;;;;1.25;1.25;;;20.50;99.90;;;;;;5029573;28;20055;-92
2023/10/13 14:22:36;;;;;;;1.23;1.23;;;20.30;99.90;;;;;;5017523;28;20055;-86
2023/10/13 14:25:08;;;;;;;1.17;1.17;;;20.20;99.90;;;;;;5064643;28;20076;-83
2023/10/13 14:27:37;;;;;;;1.33;1.33;;;20.30;99.90;;;;;;5047214;28;20106;-96
2023/10/13 14:30:03;;;;;;;1.15;1.15;;;20.20;99.90;;;;;;5033448;28;20127;-89
2023/10/13 14:32:29;;;;;;;1.15;1.15;;;20.10;99.90;;;;;;5027384;28;20119;-87
2023/10/13 14:34:56;;;;;;;1.77;1.67;;;20.00;99.90;;;;;;5031595;28;20049;-87
2023/10/13 14:37:31;;;;;;;1.38;1.35;;;19.90;99.90;;;;;;5010691;28;20376;-85
2023/10/13 14:39:59;;;;;;;1.60;1.50;;;20.00;99.90;;;;;;5035296;28;20040;-89
2023/10/13 14:42:28;;;;;;;1.67;1.58;;;19.70;99.90;;;;;;5043949;28;20052;-95
2023/10/13 14:45:10;;;;;;;;;;;;;;;;;;;;;
2023/10/13 14:47:42;;;;;;;1.48;1.42;;;19.60;99.90;;;;;;5059561;28;20045;-90
2023/10/13 14:50:24;;;;;;;1.63;1.52;;;19.60;99.90;;;;;;5016816;28;20063;-88
2023/10/13 14:52:51;;;;;;;1.58;1.50;;;19.50;99.90;;;;;;5060811;28;20045;-87
2023/10/13 14:55:20;;;;;;;1.70;1.60;;;19.70;99.90;;;;;;5031155;28;20152;-90
2023/10/13 14:57:49;;;;;;;1.77;1.67;;;19.50;99.90;;;;;;5012738;28;20052;-88
2023/10/13 15:00:24;;;;;;;1.90;1.80;;;19.40;99.90;;;;;;5029312;28;20045;-91
2023/10/13 15:02:51;;;;;;;1.73;1.63;;;19.40;99.90;;;;;;5031682;28;20049;-87
2023/10/13 15:05:17;;;;;;;1.52;1.42;;;19.60;99.90;;;;;;5026284;28;20124;-84
2023/10/13 15:07:47;;;;;;;2.00;1.90;;;19.50;99.90;;;;;;5030225;28;20144;-87
2023/10/13 15:10:15;;;;;;;1.80;1.70;;;19.40;99.90;;;;;;5016198;28;20060;-92
2023/10/13 15:12:48;;;;;;;1.80;1.70;;;19.40;99.90;;;;;;5039957;28;20045;-87
2023/10/13 15:15:20;;;;;;;1.70;1.60;;;19.50;99.90;;;;;;5017170;28;20048;-88
2023/10/13 15:17:50;;;;;;;1.65;1.55;;;19.00;99.90;;;;;;5019972;28;20052;-93
2023/10/13 15:20:18;;;;;;;1.83;1.73;;;19.40;99.90;;;;;;5017081;28;20049;-89
2023/10/13 15:22:47;;;;;;;1.92;1.83;;;19.40;99.90;;;;;;5029545;28;20044;-85
2023/10/13 15:25:41;;;;;;;;;;;;;;;;;;;;;
2023/10/13 15:28:13;;;;;;;1.90;1.80;;;19.00;99.90;;;;;;5032529;28;20587;-91
2023/10/13 15:30:52;;;;;;;2.50;2.40;;;19.40;99.90;;;;;;5014654;28;20437;-91
2023/10/13 15:33:19;;;;;;;1.90;1.80;;;19.20;99.90;;;;;;5017104;28;20102;-91
2023/10/13 15:35:53;;;;;;;1.80;1.70;;;19.20;99.90;;;;;;5030169;28;20095;-91
2023/10/13 15:38:21;;;;;;;1.80;1.70;;;19.50;99.90;;;;;;5018982;28;20049;-85
2023/10/13 15:40:54;;;;;;;1.80;1.70;;;18.70;99.90;;;;;;5059025;28;20083;-94
2023/10/13 15:43:29;;;;;;;1.27;1.27;;;18.60;99.90;;;;;;5015396;28;20749;-94
2023/10/13 15:45:59;;;;;;;1.80;1.70;;;19.20;99.90;;;;;;5024972;28;20065;-90
2023/10/13 15:48:30;;;;;;;1.70;1.60;;;19.00;99.90;;;;;;5032888;28;20065;-88
2023/10/13 15:50:56;;;;;;;2.40;2.25;;;18.90;99.90;;;;;;5017624;28;20052;-87
2023/10/13 15:53:25;;;;;;;1.60;1.50;;;18.60;99.90;;;;;;5015279;28;20414;-84
2023/10/13 15:55:50;;;;;;;1.60;1.50;;;19.10;99.90;;;;;;5033581;28;20124;-88
2023/10/13 15:58:19;;;;;;;1.60;1.50;;;19.20;99.90;;;;;;5048232;28;20173;-93
2023/10/13 16:00:45;;;;;;;1.52;1.45;;;19.10;99.90;;;;;;5038046;28;20044;-96
2023/10/13 16:03:11;;;;;;;1.65;1.55;;;18.80;99.90;;;;;;5049589;28;20056;-89
2023/10/13 16:05:42;;;;;;;1.63;1.52;;;18.80;99.90;;;;;;5063902;28;20501;-92
2023/10/13 16:08:11;;;;;;;1.40;1.38;;;18.50;99.90;;;;;;5030947;28;20049;-91
2023/10/13 16:10:41;;;;;;;1.33;1.33;;;19.40;99.90;;;;;;5015436;28;20049;-86
2023/10/13 16:13:14;;;;;;;1.70;1.60;;;18.80;99.90;;;;;;5030381;28;20043;-88
2023/10/13 16:15:42;;;;;;;1.65;1.55;;;19.40;99.90;;;;;;5016846;28;20041;-90
2023/10/13 16:18:09;;;;;;;1.40;1.38;;;19.50;99.90;;;;;;5052085;28;20116;-89
2023/10/13 16:20:36;;;;;;;1.48;1.42;;;18.60;99.90;;;;;;5034531;28;20104;-92
2023/10/13 16:23:02;;;;;;;1.38;1.38;;;18.70;99.90;;;;;;5040648;28;20065;-91
2023/10/13 16:25:27;;;;;;;1.38;1.38;;;18.30;99.90;;;;;;5019573;28;20052;-86
2023/10/13 16:27:53;;;;;;;1.52;1.45;;;19.10;99.90;;;;;;5047727;28;20052;-89
2023/10/13 16:30:19;;;;;;;1.40;1.38;;;18.50;99.90;;;;;;5070623;28;20483;-88
2023/10/13 16:32:49;;;;;;;1.33;1.33;;;19.40;99.90;;;;;;5021030;28;20065;-90
2023/10/13 16:35:21;;;;;;;1.45;1.38;;;18.20;99.90;;;;;;5036191;28;20049;-90
2023/10/13 16:37:52;;;;;;;1.38;1.38;;;18.80;99.90;;;;;;5012220;28;20145;-88
2023/10/13 16:40:27;;;;;;;1.75;1.65;;;19.20;99.90;;;;;;5031973;28;20049;-90
2023/10/13 16:42:54;;;;;;;1.27;1.27;;;18.40;99.90;;;;;;5015562;28;20116;-93
2023/10/13 16:45:20;;;;;;;1.30;1.30;;;19.20;99.90;;;;;;5015919;28;20040;-90
2023/10/13 16:47:47;;;;;;;1.20;1.20;;;18.90;99.90;;;;;;5034220;28;20041;-86
2023/10/13 16:50:14;;;;;;;1.30;1.30;;;19.10;99.90;;;;;;5034517;28;20056;-90
2023/10/13 16:52:40;;;;;;;1.33;1.33;;;18.40;99.90;;;;;;5032498;28;20044;-89
2023/10/13 16:55:20;;;;;;;1.30;1.30;;;18.30;99.90;;;;;;5033219;28;20048;-95
2023/10/13 16:57:50;;;;;;;1.35;1.35;;;18.70;99.90;;;;;;5035639;28;20045;-86